Greenview, CA (96037)

5:34 AM PDT on April 27, 2015 (GMT -0700)
KCAETNA3 | | Change Station
CLOSE
Current Station
Personal Weather Station
Location: Island Rd, Scott Valley, CA
Elevation: 2728 ft
Nearby Weather Stations

Elev 2728 ft 41.55 °N, 122.85 °W | Updated 42 seconds ago

Clear
Clear
36.6 °F
Feels Like 37 °F
N
0.0
Wind Variable Wind from East
Gusts 4.0 mph

Today
High -- | Low -- °F
--% Chance of Precip.
Yesterday
High -- | Low -- °F
Precip. -- in
6:14 AM 8:05 PM
Waxing Gibbous, 64% visible
Pressure 30.30 in
Visibility 10.0 miles
Clouds Clear
Windchill 37 °F
Dew Point 36 °F
Humidity 96%
Rainfall 0.00 in
Snow Depth Not available.
UV 0 out of 12
Pollen 8.60 out of 12
Air Quality Not available.
Flu Activity Sporadic
METAR KSIY 271153Z AUTO 00000KT 10SM CLR 03/01 A3027 RMK AO2 SLP258 T00280006 10100 20028 53003

More Conditions Fewer Conditions

Pressure 30.30 in
Visibility 10.0 miles
Clouds Clear
Windchill 37 °F
Dew Point 36 °F
Humidity 96%
Rainfall 0.00 in
Snow Depth Not available.
UV 0 out of 12
Pollen 8.60 out of 12
Air Quality Not available.
Flu Activity Sporadic
METAR KSIY 271153Z AUTO 00000KT 10SM CLR 03/01 A3027 RMK AO2 SLP258 T00280006 10100 20028 53003

More Conditions Fewer Conditions

10-Day Weather Forecast

Almanac

Astronomy

Apr. 27, 2015 Rise Set
Actual Time
Civil Twilight
Nautical Twilight
Astronomical Twilight
Moon
Length of Visible Light
Length of Day
Tomorrow will be .
, % of the Moon is Illuminated

Today's Extremes

State Highs State Lows

Community

WunderPhotos

Upload Photos

1,817,292 photos uploaded!

WunderBlogs® & News

Nearby

Air Quality

  Air Quality AQ Index Pollutant
Not available.

Snow Depth

Station Depth Elevation

Earthquake Activity

City Distance Mag. Time & Date
Minimum magnitude displayed is 2.5.

Coastal Water Temperatures

Place Temperature

Stations

Nearby Weather Stations

Station Location Temp. Windchill Dew Point Humidity Wind Precip. Elev Updated Type